Terminal Aerodrome Forecast
Issued by NWS

Home | Current Version | Previous Version | Text Only | Print | Product List | Glossary Off
Versions: 1 2 3 4 5 6 7 8 9 10 11 12 13 14 15 16 17 18 19 20 21 22 23

000
FTUS43 KICT 212334
TAFCNU
TAF
KCNU 212334Z 2200/2224 05011KT P6SM VCSH OVC015
     FM220400 05010KT 5SM -FZRA OVC008
      TEMPO 2204/2208 3SM TS FZRA OVC012CB
     FM220800 05009KT 4SM -FZRA OVC008
     FM221300 06007KT 3SM -FZDZ BR OVC005
     FM221600 07006KT P6SM OVC012=

USA.gov is the U.S. government's official web portal to all federal, state and local government web resources and services.